createdAt,value
2022-09-09T00:01:10.078Z,22.30
2022-09-09T00:03:46.175Z,22.00
2022-09-09T00:06:26.493Z,22.00
2022-09-09T00:09:04.183Z,21.80
2022-09-09T00:11:41.658Z,21.60
2022-09-09T00:14:18.331Z,21.40
2022-09-09T00:16:52.395Z,21.50
2022-09-09T00:19:26.413Z,21.50
2022-09-09T00:22:08.610Z,21.50
2022-09-09T00:24:43.713Z,21.60
2022-09-09T00:27:23.755Z,21.80
2022-09-09T00:29:56.653Z,22.00
2022-09-09T00:32:28.160Z,22.20
2022-09-09T00:34:59.365Z,22.40
2022-09-09T00:37:28.581Z,22.40
2022-09-09T00:40:01.811Z,22.30
2022-09-09T00:42:42.661Z,21.90
2022-09-09T00:45:25.761Z,21.70
2022-09-09T00:47:55.003Z,21.80
2022-09-09T00:50:42.178Z,21.70
2022-09-09T00:53:21.305Z,21.70
2022-09-09T00:55:58.168Z,21.70
2022-09-09T00:58:26.264Z,21.80
2022-09-09T01:01:03.698Z,21.80
2022-09-09T01:03:36.835Z,21.80
2022-09-09T01:06:18.422Z,21.60
2022-09-09T01:09:12.288Z,21.50
2022-09-09T01:11:52.955Z,21.30
2022-09-09T01:14:37.008Z,21.20
2022-09-09T01:17:11.428Z,21.00
2022-09-09T01:19:52.203Z,21.00
2022-09-09T01:22:28.508Z,20.90
2022-09-09T01:25:20.647Z,21.00
2022-09-09T01:27:51.641Z,21.00
2022-09-09T01:30:20.870Z,21.00
2022-09-09T01:32:51.100Z,21.20
2022-09-09T01:35:31.632Z,21.30
2022-09-09T01:37:59.540Z,21.60
2022-09-09T01:40:28.004Z,21.80
2022-09-09T01:42:58.492Z,21.70
2022-09-09T01:45:27.058Z,21.50
2022-09-09T01:47:55.143Z,21.20
2022-09-09T01:50:23.413Z,21.00
2022-09-09T01:52:54.528Z,20.80
2022-09-09T01:55:30.045Z,20.60
2022-09-09T01:58:11.744Z,20.20
2022-09-09T02:00:45.666Z,19.90
2022-09-09T02:03:23.437Z,19.80
2022-09-09T02:05:57.317Z,19.90
2022-09-09T02:08:30.896Z,19.80
2022-09-09T02:11:04.064Z,19.50
2022-09-09T02:13:37.007Z,19.40
2022-09-09T02:16:09.290Z,19.40
2022-09-09T02:18:42.127Z,19.50
2022-09-09T02:21:12.655Z,19.60
2022-09-09T02:23:42.494Z,19.60
2022-09-09T02:26:12.308Z,19.70
2022-09-09T02:28:43.274Z,19.60
2022-09-09T02:31:11.291Z,19.60
2022-09-09T02:33:43.609Z,19.60
2022-09-09T02:36:14.223Z,19.70
2022-09-09T02:38:47.099Z,19.60
2022-09-09T02:41:15.085Z,19.90
2022-09-09T02:43:44.395Z,20.10
2022-09-09T02:46:29.804Z,20.30
2022-09-09T02:49:03.569Z,20.30
2022-09-09T02:51:39.660Z,20.30
2022-09-09T02:54:17.793Z,20.10
2022-09-09T02:56:51.924Z,20.10
2022-09-09T02:59:21.150Z,20.20
2022-09-09T03:01:49.034Z,20.00
2022-09-09T03:04:16.867Z,20.00
2022-09-09T03:06:45.159Z,19.90
2022-09-09T03:09:13.028Z,19.80
2022-09-09T03:11:41.002Z,19.80
2022-09-09T03:14:09.376Z,19.90
2022-09-09T03:16:38.732Z,19.70
2022-09-09T03:19:07.250Z,19.70
2022-09-09T03:21:35.220Z,19.60
2022-09-09T03:24:04.227Z,19.60
2022-09-09T03:26:32.720Z,19.60
2022-09-09T03:29:01.325Z,19.70
2022-09-09T03:31:31.098Z,19.70
2022-09-09T03:34:00.479Z,19.60
2022-09-09T03:36:29.087Z,19.50
2022-09-09T03:38:57.398Z,19.30
2022-09-09T03:41:25.700Z,19.20
2022-09-09T03:43:53.656Z,19.20
2022-09-09T03:46:21.903Z,19.20
2022-09-09T03:48:49.836Z,19.20
2022-09-09T03:51:19.278Z,19.30
2022-09-09T03:53:47.482Z,19.20
2022-09-09T03:56:15.720Z,19.20
2022-09-09T03:58:43.569Z,19.20
2022-09-09T04:01:14.183Z,19.20
2022-09-09T04:03:43.324Z,19.20
2022-09-09T04:06:14.365Z,19.20
2022-09-09T04:08:44.009Z,19.10
2022-09-09T04:11:11.950Z,19.00
2022-09-09T04:13:41.161Z,18.90
2022-09-09T04:16:11.251Z,18.90
2022-09-09T04:18:39.882Z,18.90
2022-09-09T04:21:08.904Z,19.00
2022-09-09T04:23:37.057Z,19.00
2022-09-09T04:26:06.882Z,19.00
2022-09-09T04:28:36.677Z,18.90
2022-09-09T04:31:08.689Z,18.90
2022-09-09T04:33:40.151Z,18.70
2022-09-09T04:36:09.465Z,18.70
2022-09-09T04:38:37.713Z,18.60
2022-09-09T04:41:08.246Z,18.60
2022-09-09T04:43:36.134Z,18.50
2022-09-09T04:46:04.072Z,18.60
2022-09-09T04:48:32.077Z,18.60
2022-09-09T04:51:01.354Z,18.60
2022-09-09T04:53:29.214Z,18.60
2022-09-09T04:56:04.533Z,18.70
2022-09-09T04:58:34.181Z,18.80
2022-09-09T05:01:09.653Z,18.80
2022-09-09T05:03:38.444Z,18.60
2022-09-09T05:06:09.233Z,18.60
2022-09-09T05:08:37.951Z,18.60
2022-09-09T05:11:06.187Z,18.50
2022-09-09T05:13:38.408Z,18.40
2022-09-09T05:16:12.174Z,18.30
2022-09-09T05:18:40.419Z,18.30
2022-09-09T05:21:08.789Z,18.30
2022-09-09T05:23:36.748Z,18.20
2022-09-09T05:26:05.492Z,18.20
2022-09-09T05:28:36.326Z,18.30
2022-09-09T05:31:06.495Z,18.30
2022-09-09T05:33:34.397Z,18.30
2022-09-09T05:36:05.203Z,18.30
2022-09-09T05:38:34.264Z,18.20
2022-09-09T05:41:03.479Z,18.20
2022-09-09T05:43:33.371Z,18.30
2022-09-09T05:46:05.216Z,18.30
2022-09-09T05:48:34.242Z,18.70
2022-09-09T05:51:03.415Z,19.20
2022-09-09T05:53:35.052Z,19.40
2022-09-09T05:56:04.783Z,19.70
2022-09-09T05:58:32.896Z,19.80
2022-09-09T06:01:07.596Z,20.00
2022-09-09T06:03:36.174Z,20.10
2022-09-09T06:06:06.724Z,20.10
2022-09-09T06:08:35.545Z,20.20
2022-09-09T06:11:04.936Z,20.50
2022-09-09T06:13:32.927Z,20.80
2022-09-09T06:16:01.548Z,20.70
2022-09-09T06:18:31.213Z,20.70
2022-09-09T06:20:59.953Z,20.80
2022-09-09T06:23:28.288Z,20.80
2022-09-09T06:26:06.512Z,20.80
2022-09-09T06:28:34.520Z,20.90
2022-09-09T06:31:04.026Z,21.00
2022-09-09T06:33:35.850Z,21.00
2022-09-09T06:36:04.732Z,21.00
2022-09-09T06:38:32.879Z,21.00
2022-09-09T06:41:02.745Z,21.00
2022-09-09T06:43:31.123Z,21.00
2022-09-09T06:45:59.886Z,21.10
2022-09-09T06:48:29.059Z,21.20
2022-09-09T06:51:05.792Z,21.00
2022-09-09T06:53:34.960Z,21.10
2022-09-09T06:56:03.198Z,21.10
2022-09-09T06:58:31.508Z,21.10
2022-09-09T07:01:09.275Z,21.20
2022-09-09T07:03:38.180Z,21.30
2022-09-09T07:06:08.379Z,21.40
2022-09-09T07:08:36.500Z,21.40
2022-09-09T07:11:11.623Z,21.30
2022-09-09T07:13:40.236Z,21.30
2022-09-09T07:16:09.458Z,21.40
2022-09-09T07:18:37.941Z,21.40
2022-09-09T07:21:07.835Z,21.50
2022-09-09T07:23:36.607Z,21.50
2022-09-09T07:26:09.210Z,21.50
2022-09-09T07:28:37.607Z,21.60
2022-09-09T07:31:06.636Z,21.70
2022-09-09T07:33:37.096Z,21.80
2022-09-09T07:36:09.466Z,21.80
2022-09-09T07:38:41.502Z,21.80
2022-09-09T07:41:12.792Z,21.70
2022-09-09T07:43:41.757Z,21.80
2022-09-09T07:46:11.005Z,21.90
2022-09-09T07:48:39.007Z,21.70
2022-09-09T07:51:17.811Z,21.60
2022-09-09T07:53:45.996Z,21.80
2022-09-09T07:56:15.994Z,21.80
2022-09-09T07:58:44.327Z,21.90
2022-09-09T08:01:14.196Z,21.90
2022-09-09T08:03:42.214Z,21.90
2022-09-09T08:06:11.613Z,21.90
2022-09-09T08:08:42.104Z,21.90
2022-09-09T08:11:12.538Z,22.00
2022-09-09T08:13:41.224Z,21.90
2022-09-09T08:16:10.922Z,22.00
2022-09-09T08:18:38.864Z,21.80
2022-09-09T08:21:13.746Z,21.70
2022-09-09T08:23:43.023Z,21.70
2022-09-09T08:26:14.345Z,21.60
2022-09-09T08:28:42.921Z,21.60
2022-09-09T08:31:14.301Z,21.50
2022-09-09T08:33:42.864Z,21.50
2022-09-09T08:36:16.178Z,21.60
2022-09-09T08:38:44.719Z,21.80
2022-09-09T08:41:36.689Z,21.90
2022-09-09T08:44:09.009Z,22.10
2022-09-09T08:46:46.947Z,22.20
2022-09-09T08:49:32.773Z,22.30
2022-09-09T08:52:03.145Z,22.30
2022-09-09T08:54:51.567Z,22.40
2022-09-09T08:57:27.680Z,22.50
2022-09-09T08:59:58.543Z,22.60
2022-09-09T09:02:31.093Z,22.70
2022-09-09T09:05:11.802Z,22.70
2022-09-09T09:07:54.408Z,22.70
2022-09-09T09:10:42.325Z,22.80
2022-09-09T09:13:16.799Z,22.70
2022-09-09T09:15:48.962Z,22.70
2022-09-09T09:18:18.918Z,22.80
2022-09-09T09:20:55.941Z,22.80
2022-09-09T09:23:27.546Z,22.90
2022-09-09T09:26:00.786Z,22.90
2022-09-09T09:28:32.001Z,22.90
2022-09-09T09:31:05.718Z,23.00
2022-09-09T09:33:39.259Z,22.90
2022-09-09T09:36:09.053Z,22.90
2022-09-09T09:41:34.679Z,23.00
2022-09-09T09:44:04.059Z,23.00
2022-09-09T09:46:32.379Z,23.10
2022-09-09T09:49:02.050Z,23.10
2022-09-09T09:51:33.095Z,23.10
2022-09-09T09:54:17.322Z,23.10
2022-09-09T09:56:45.931Z,23.10
2022-09-09T09:59:41.836Z,23.20
2022-09-09T10:02:21.826Z,23.20
2022-09-09T10:04:49.858Z,23.20
2022-09-09T10:07:21.391Z,23.20
2022-09-09T10:09:55.304Z,23.30
2022-09-09T10:12:33.665Z,23.30
2022-09-09T10:15:07.940Z,23.30
2022-09-09T10:17:44.169Z,23.30
2022-09-09T10:20:25.906Z,23.40
2022-09-09T10:22:59.940Z,23.40
2022-09-09T10:26:06.849Z,23.40
2022-09-09T10:28:53.154Z,23.40
2022-09-09T10:31:29.275Z,23.40
2022-09-09T10:34:08.915Z,23.50
2022-09-09T10:36:40.869Z,23.50
2022-09-09T10:39:20.391Z,23.60
2022-09-09T10:41:56.943Z,23.60
2022-09-09T10:45:01.675Z,23.60
2022-09-09T10:47:51.128Z,23.60
2022-09-09T10:51:00.666Z,23.70
2022-09-09T10:53:39.360Z,23.80
2022-09-09T10:56:11.198Z,23.80
2022-09-09T10:58:46.179Z,23.70
2022-09-09T11:01:21.009Z,23.40
2022-09-09T11:04:00.589Z,23.20
2022-09-09T11:06:34.685Z,23.10
2022-09-09T11:09:03.972Z,23.00
2022-09-09T11:11:38.525Z,22.80
2022-09-09T11:14:15.769Z,22.70
2022-09-09T11:16:50.658Z,22.70
2022-09-09T11:19:26.935Z,22.70
2022-09-09T11:21:55.847Z,22.70
2022-09-09T11:24:30.314Z,22.70
2022-09-09T11:27:03.860Z,22.70
2022-09-09T11:30:02.390Z,22.70
2022-09-09T11:32:56.882Z,22.70
2022-09-09T11:35:36.792Z,22.50
2022-09-09T11:38:22.164Z,22.70
2022-09-09T11:41:00.076Z,22.60
2022-09-09T11:43:31.878Z,22.70
2022-09-09T11:46:03.425Z,22.80
2022-09-09T11:48:35.474Z,22.80
2022-09-09T11:51:10.100Z,22.70
2022-09-09T11:53:50.716Z,22.70
2022-09-09T11:56:28.374Z,22.70
2022-09-09T11:58:59.698Z,22.70
2022-09-09T12:01:36.904Z,22.70
2022-09-09T12:04:38.218Z,22.70
2022-09-09T12:07:23.678Z,22.70
2022-09-09T12:09:57.036Z,22.70
2022-09-09T12:12:30.770Z,22.70
2022-09-09T12:15:01.539Z,22.70
2022-09-09T12:17:31.953Z,22.60
2022-09-09T12:20:10.825Z,22.60
2022-09-09T12:22:49.655Z,22.50
2022-09-09T12:25:25.209Z,22.40
2022-09-09T12:28:06.220Z,22.40
2022-09-09T12:30:39.214Z,22.40
2022-09-09T12:33:14.579Z,22.30
2022-09-09T12:35:46.982Z,22.30
2022-09-09T12:38:19.411Z,22.30
2022-09-09T12:40:56.478Z,22.30
2022-09-09T12:43:26.560Z,22.30
2022-09-09T12:45:59.862Z,22.30
2022-09-09T12:48:33.369Z,22.30
2022-09-09T12:51:03.231Z,22.50
2022-09-09T12:53:35.744Z,22.80
2022-09-09T12:56:07.394Z,23.10
2022-09-09T12:58:35.854Z,23.30
2022-09-09T13:01:06.210Z,23.40
2022-09-09T13:03:37.243Z,23.40
2022-09-09T13:06:15.499Z,23.60
2022-09-09T13:08:43.782Z,23.70
2022-09-09T13:11:16.475Z,23.90
2022-09-09T13:13:45.270Z,23.90
2022-09-09T13:16:23.916Z,23.80
2022-09-09T13:18:52.693Z,23.80
2022-09-09T13:21:32.746Z,23.90
2022-09-09T13:24:04.153Z,24.00
2022-09-09T13:26:32.428Z,24.00
2022-09-09T13:29:19.580Z,24.20
2022-09-09T13:31:47.908Z,24.30
2022-09-09T13:34:28.254Z,24.30
2022-09-09T13:37:02.480Z,24.40
2022-09-09T13:39:30.514Z,24.30
2022-09-09T13:41:58.744Z,24.20
2022-09-09T13:44:30.179Z,24.30
2022-09-09T13:47:10.246Z,24.40
2022-09-09T13:49:38.700Z,24.40
2022-09-09T13:52:12.726Z,24.50
2022-09-09T13:54:40.778Z,24.50
2022-09-09T13:57:18.169Z,24.40
2022-09-09T14:00:05.131Z,24.40
2022-09-09T14:02:34.567Z,24.50
2022-09-09T14:05:02.608Z,24.60
2022-09-09T14:07:32.966Z,24.60
2022-09-09T14:10:01.184Z,24.60
2022-09-09T14:12:29.539Z,24.50
2022-09-09T14:14:57.399Z,24.50
2022-09-09T14:17:26.082Z,24.50
2022-09-09T14:19:53.991Z,24.50
2022-09-09T14:22:22.315Z,24.50
2022-09-09T14:24:51.890Z,24.50
2022-09-09T14:27:20.781Z,24.50
2022-09-09T14:29:48.681Z,24.60
2022-09-09T14:32:16.569Z,24.60
2022-09-09T14:34:46.217Z,24.50
2022-09-09T14:37:14.124Z,24.40
2022-09-09T14:39:44.906Z,24.30
2022-09-09T14:42:14.116Z,24.30
2022-09-09T14:44:42.518Z,24.50
2022-09-09T14:47:10.986Z,24.50
2022-09-09T14:49:41.498Z,24.60
2022-09-09T14:52:12.244Z,24.60
2022-09-09T14:54:40.093Z,24.50
2022-09-09T14:57:07.965Z,24.30
2022-09-09T14:59:37.217Z,24.00
2022-09-09T15:02:05.423Z,24.10
2022-09-09T15:04:33.620Z,24.20
2022-09-09T15:07:01.554Z,24.40
2022-09-09T15:09:30.150Z,24.50
2022-09-09T15:11:58.057Z,24.60
2022-09-09T15:14:27.011Z,24.70
2022-09-09T15:16:56.217Z,24.70
2022-09-09T15:19:24.085Z,24.40
2022-09-09T15:21:52.467Z,24.50
2022-09-09T15:24:20.675Z,24.50
2022-09-09T15:26:48.907Z,24.30
2022-09-09T15:29:16.815Z,24.10
2022-09-09T15:31:44.796Z,24.00
2022-09-09T15:34:14.680Z,23.90
2022-09-09T15:36:44.350Z,24.00
2022-09-09T15:39:16.525Z,24.20
2022-09-09T15:41:45.173Z,24.50
2022-09-09T15:44:13.690Z,24.60
2022-09-09T15:46:42.999Z,24.60
2022-09-09T15:49:13.739Z,24.60
2022-09-09T15:51:44.937Z,24.60
2022-09-09T15:54:14.834Z,24.60
2022-09-09T15:56:43.322Z,24.60
2022-09-09T15:59:12.259Z,24.60
2022-09-09T16:01:41.626Z,24.60
2022-09-09T16:04:09.907Z,24.50
2022-09-09T16:06:39.907Z,24.40
2022-09-09T16:09:09.351Z,24.30
2022-09-09T16:11:39.162Z,24.20
2022-09-09T16:14:08.071Z,24.00
2022-09-09T16:16:37.078Z,23.90
2022-09-09T16:19:07.713Z,23.80
2022-09-09T16:21:38.478Z,23.70
2022-09-09T16:24:11.285Z,23.60
2022-09-09T16:26:40.809Z,23.50
2022-09-09T16:29:09.771Z,23.40
2022-09-09T16:31:38.625Z,23.60
2022-09-09T16:34:06.608Z,23.40
2022-09-09T16:36:36.173Z,23.20
2022-09-09T16:39:07.728Z,23.10
2022-09-09T16:41:36.090Z,23.00
2022-09-09T16:44:05.784Z,23.00
2022-09-09T16:46:36.288Z,22.90
2022-09-09T16:49:06.747Z,22.70
2022-09-09T16:51:36.626Z,22.70
2022-09-09T16:54:08.757Z,22.50
2022-09-09T16:56:38.918Z,22.30
2022-09-09T16:59:09.376Z,22.50
2022-09-09T17:01:41.435Z,22.80
2022-09-09T17:04:11.786Z,23.10
2022-09-09T17:06:40.010Z,23.10
2022-09-09T17:09:12.527Z,22.80
2022-09-09T17:11:42.335Z,22.70
2022-09-09T17:14:13.061Z,22.80
2022-09-09T17:16:41.420Z,22.70
2022-09-09T17:19:10.838Z,22.80
2022-09-09T17:21:54.640Z,22.80
2022-09-09T17:24:29.927Z,22.70
2022-09-09T17:26:58.420Z,22.60
2022-09-09T17:29:26.654Z,22.80
2022-09-09T17:31:55.844Z,22.90
2022-09-09T17:34:24.122Z,22.90
2022-09-09T17:36:52.499Z,23.00
2022-09-09T17:39:20.367Z,22.90
2022-09-09T17:41:49.841Z,22.90
2022-09-09T17:44:17.899Z,23.00
2022-09-09T17:46:46.275Z,22.90
2022-09-09T17:49:16.202Z,22.70
2022-09-09T17:51:45.029Z,22.70
2022-09-09T17:54:14.936Z,22.70
2022-09-09T17:56:43.813Z,22.80
2022-09-09T17:59:14.541Z,22.80
2022-09-09T18:01:44.609Z,22.90
2022-09-09T18:04:14.942Z,23.00
2022-09-09T18:06:45.307Z,23.00
2022-09-09T18:09:15.146Z,23.00
2022-09-09T18:11:45.817Z,22.90
2022-09-09T18:14:17.723Z,22.80
2022-09-09T18:16:47.068Z,22.80
2022-09-09T18:19:17.411Z,22.70
2022-09-09T18:21:45.723Z,22.70
2022-09-09T18:24:16.060Z,22.70
2022-09-09T18:26:45.437Z,22.60
2022-09-09T18:29:16.206Z,22.60
2022-09-09T18:31:44.546Z,22.60
2022-09-09T18:34:14.963Z,22.60
2022-09-09T18:36:44.753Z,22.70
2022-09-09T18:39:14.005Z,22.70
2022-09-09T18:41:44.950Z,22.80
2022-09-09T18:44:16.421Z,22.90
2022-09-09T18:46:45.337Z,22.90
2022-09-09T18:49:15.091Z,23.00
2022-09-09T18:51:44.203Z,22.90
2022-09-09T18:54:15.828Z,23.00
2022-09-09T18:56:43.860Z,23.10
2022-09-09T18:59:15.266Z,23.00
2022-09-09T19:01:44.501Z,23.00
2022-09-09T19:04:12.523Z,23.10
2022-09-09T19:06:42.871Z,23.20
2022-09-09T19:09:12.320Z,23.20
2022-09-09T19:11:40.849Z,23.30
2022-09-09T19:14:11.523Z,23.40
2022-09-09T19:16:41.453Z,23.40
2022-09-09T19:19:13.307Z,23.50
2022-09-09T19:21:42.431Z,23.40
2022-09-09T19:24:14.967Z,23.30
2022-09-09T19:26:45.673Z,23.30
2022-09-09T19:29:16.235Z,23.20
2022-09-09T19:32:09.348Z,23.10
2022-09-09T19:34:34.451Z,23.10
2022-09-09T19:37:02.329Z,23.00
2022-09-09T19:39:32.027Z,23.00
2022-09-09T19:41:59.947Z,22.90
2022-09-09T19:44:27.948Z,23.00
2022-09-09T19:46:57.281Z,22.90
2022-09-09T19:49:25.222Z,22.80
2022-09-09T19:51:55.080Z,22.90
2022-09-09T19:54:23.036Z,23.00
2022-09-09T19:56:50.965Z,23.10
2022-09-09T19:59:18.827Z,23.10
2022-09-09T20:01:46.828Z,23.10
2022-09-09T20:04:18.588Z,23.10
2022-09-09T20:06:47.142Z,23.10
2022-09-09T20:09:17.471Z,23.10
2022-09-09T20:11:46.566Z,23.00
2022-09-09T20:14:15.239Z,23.10
2022-09-09T20:16:45.534Z,23.10
2022-09-09T20:19:17.211Z,23.10
2022-09-09T20:21:47.954Z,22.90
2022-09-09T20:24:18.558Z,23.00
2022-09-09T20:26:47.920Z,22.90
2022-09-09T20:29:18.577Z,22.90
2022-09-09T20:31:46.758Z,23.00
2022-09-09T20:34:18.416Z,23.00
2022-09-09T20:36:46.656Z,23.00
2022-09-09T20:39:16.025Z,23.00
2022-09-09T20:41:45.393Z,23.00
2022-09-09T20:44:15.969Z,23.10
2022-09-09T20:46:47.870Z,23.10
2022-09-09T20:49:18.476Z,23.00
2022-09-09T20:51:46.934Z,23.00
2022-09-09T20:54:16.857Z,23.00
2022-09-09T20:56:46.402Z,23.00
2022-09-09T20:59:16.980Z,22.90
2022-09-09T21:01:46.956Z,22.80
2022-09-09T21:04:15.866Z,22.80
2022-09-09T21:06:45.283Z,22.80
2022-09-09T21:09:13.527Z,22.90
2022-09-09T21:11:41.922Z,22.90
2022-09-09T21:14:10.552Z,22.90
2022-09-09T21:16:38.420Z,22.80
2022-09-09T21:19:06.714Z,22.70
2022-09-09T21:21:34.673Z,22.80
2022-09-09T21:24:04.578Z,22.80
2022-09-09T21:26:32.463Z,22.70
2022-09-09T21:29:00.353Z,22.60
2022-09-09T21:31:28.734Z,22.50
2022-09-09T21:33:57.193Z,22.50
2022-09-09T21:36:28.132Z,22.60
2022-09-09T21:38:56.660Z,22.50
2022-09-09T21:41:26.028Z,22.60
2022-09-09T21:43:55.566Z,22.60
2022-09-09T21:46:26.373Z,22.70
2022-09-09T21:48:56.390Z,22.80
2022-09-09T21:51:24.330Z,22.70
2022-09-09T21:53:56.128Z,22.70
2022-09-09T21:56:26.598Z,22.80
2022-09-09T21:58:57.557Z,22.70
2022-09-09T22:01:26.397Z,22.60
2022-09-09T22:03:54.511Z,22.60
2022-09-09T22:06:22.362Z,22.60
2022-09-09T22:08:50.215Z,22.40
2022-09-09T22:11:20.511Z,22.40
2022-09-09T22:13:50.622Z,22.50
2022-09-09T22:16:20.538Z,22.60
2022-09-09T22:18:56.545Z,22.60
2022-09-09T22:21:25.985Z,22.50
2022-09-09T22:23:54.904Z,22.50
2022-09-09T22:26:23.295Z,22.50
2022-09-09T22:28:53.785Z,22.50
2022-09-09T22:31:22.562Z,22.60
2022-09-09T22:33:52.373Z,22.50
2022-09-09T22:36:20.773Z,22.40
2022-09-09T22:38:49.276Z,22.40
2022-09-09T22:41:18.714Z,22.40
2022-09-09T22:43:47.283Z,22.30
2022-09-09T22:46:16.719Z,22.30
2022-09-09T22:48:44.798Z,22.30
2022-09-09T22:51:15.487Z,22.10
2022-09-09T22:53:45.353Z,22.00
2022-09-09T22:56:15.019Z,22.10
2022-09-09T22:58:42.855Z,22.10
2022-09-09T23:01:14.626Z,22.00
2022-09-09T23:03:46.072Z,22.00
2022-09-09T23:06:20.068Z,21.90
2022-09-09T23:08:48.789Z,21.80
2022-09-09T23:11:17.303Z,21.70
2022-09-09T23:13:49.606Z,21.80
2022-09-09T23:16:20.583Z,21.70
2022-09-09T23:18:52.142Z,21.60
2022-09-09T23:21:20.839Z,21.60
2022-09-09T23:23:49.050Z,21.60
2022-09-09T23:26:20.900Z,21.60
2022-09-09T23:28:50.399Z,21.40
2022-09-09T23:31:20.771Z,21.30
2022-09-09T23:33:50.331Z,21.20
2022-09-09T23:36:20.152Z,21.20
2022-09-09T23:38:48.525Z,21.30
2022-09-09T23:41:20.021Z,21.30
2022-09-09T23:43:48.057Z,21.30
2022-09-09T23:46:20.208Z,21.40
2022-09-09T23:48:51.024Z,21.50
2022-09-09T23:51:23.577Z,21.50
2022-09-09T23:53:52.919Z,21.40
2022-09-09T23:56:21.911Z,21.20
2022-09-09T23:58:50.283Z,21.10
